sensor_id;sensor_type;location;lat;lon;timestamp;temperature;humidity
11126;DHT22;5617;54.046;10.676;2022-09-23T00:01:33;9.90;99.90
11126;DHT22;5617;54.046;10.676;2022-09-23T00:03:42;9.90;99.90
11126;DHT22;5617;54.046;10.676;2022-09-23T00:05:56;9.90;99.90
11126;DHT22;5617;54.046;10.676;2022-09-23T00:08:05;9.90;99.90
11126;DHT22;5617;54.046;10.676;2022-09-23T00:10:14;9.80;99.90
11126;DHT22;5617;54.046;10.676;2022-09-23T00:12:22;9.80;99.90
11126;DHT22;5617;54.046;10.676;2022-09-23T00:14:30;9.80;99.90
11126;DHT22;5617;54.046;10.676;2022-09-23T00:16:37;9.80;99.90
11126;DHT22;5617;54.046;10.676;2022-09-23T00:18:45;9.80;99.90
11126;DHT22;5617;54.046;10.676;2022-09-23T00:20:54;9.80;99.90
11126;DHT22;5617;54.046;10.676;2022-09-23T00:23:02;9.80;99.90
11126;DHT22;5617;54.046;10.676;2022-09-23T00:25:11;9.80;99.90
11126;DHT22;5617;54.046;10.676;2022-09-23T00:27:20;9.70;99.90
11126;DHT22;5617;54.046;10.676;2022-09-23T00:29:27;9.70;99.90
11126;DHT22;5617;54.046;10.676;2022-09-23T00:31:35;9.70;99.90
11126;DHT22;5617;54.046;10.676;2022-09-23T00:33:43;9.70;99.90
11126;DHT22;5617;54.046;10.676;2022-09-23T00:35:57;9.70;99.90
11126;DHT22;5617;54.046;10.676;2022-09-23T00:38:05;9.70;99.90
11126;DHT22;5617;54.046;10.676;2022-09-23T00:40:13;9.70;99.90
11126;DHT22;5617;54.046;10.676;2022-09-23T00:42:23;9.70;99.90
11126;DHT22;5617;54.046;10.676;2022-09-23T00:44:47;9.60;99.90
11126;DHT22;5617;54.046;10.676;2022-09-23T00:46:56;9.60;99.90
11126;DHT22;5617;54.046;10.676;2022-09-23T00:49:06;9.60;99.90
11126;DHT22;5617;54.046;10.676;2022-09-23T00:51:21;9.60;99.90
11126;DHT22;5617;54.046;10.676;2022-09-23T00:53:29;9.60;99.90
11126;DHT22;5617;54.046;10.676;2022-09-23T00:55:40;9.60;99.90
11126;DHT22;5617;54.046;10.676;2022-09-23T00:57:52;9.60;99.90
11126;DHT22;5617;54.046;10.676;2022-09-23T01:00:02;9.60;99.90
11126;DHT22;5617;54.046;10.676;2022-09-23T01:02:11;9.60;99.90
11126;DHT22;5617;54.046;10.676;2022-09-23T01:04:21;9.50;99.90
11126;DHT22;5617;54.046;10.676;2022-09-23T01:06:29;9.50;99.90
11126;DHT22;5617;54.046;10.676;2022-09-23T01:08:38;9.50;99.90
11126;DHT22;5617;54.046;10.676;2022-09-23T01:10:54;9.50;99.90
11126;DHT22;5617;54.046;10.676;2022-09-23T01:13:14;9.60;99.90
11126;DHT22;5617;54.046;10.676;2022-09-23T01:15:31;9.50;99.90
11126;DHT22;5617;54.046;10.676;2022-09-23T01:17:49;9.50;99.90
11126;DHT22;5617;54.046;10.676;2022-09-23T01:20:29;9.50;99.90
11126;DHT22;5617;54.046;10.676;2022-09-23T01:22:45;9.40;99.90
11126;DHT22;5617;54.046;10.676;2022-09-23T01:25:20;9.40;99.90
11126;DHT22;5617;54.046;10.676;2022-09-23T01:27:45;9.40;99.90
11126;DHT22;5617;54.046;10.676;2022-09-23T01:30:06;9.30;99.90
11126;DHT22;5617;54.046;10.676;2022-09-23T01:32:21;9.30;99.90
11126;DHT22;5617;54.046;10.676;2022-09-23T01:34:43;9.30;99.90
11126;DHT22;5617;54.046;10.676;2022-09-23T01:36:57;9.20;99.90
11126;DHT22;5617;54.046;10.676;2022-09-23T01:39:12;9.20;99.90
11126;DHT22;5617;54.046;10.676;2022-09-23T01:41:34;9.20;99.90
11126;DHT22;5617;54.046;10.676;2022-09-23T01:43:48;9.10;99.90
11126;DHT22;5617;54.046;10.676;2022-09-23T01:46:03;9.10;99.90
11126;DHT22;5617;54.046;10.676;2022-09-23T01:48:20;9.10;99.90
11126;DHT22;5617;54.046;10.676;2022-09-23T01:50:33;9.10;99.90
11126;DHT22;5617;54.046;10.676;2022-09-23T01:53:05;9.00;99.90
11126;DHT22;5617;54.046;10.676;2022-09-23T01:55:18;9.00;99.90
11126;DHT22;5617;54.046;10.676;2022-09-23T01:57:32;9.00;99.90
11126;DHT22;5617;54.046;10.676;2022-09-23T01:59:45;9.00;99.90
11126;DHT22;5617;54.046;10.676;2022-09-23T02:01:56;9.00;99.90
11126;DHT22;5617;54.046;10.676;2022-09-23T02:04:11;8.90;99.90
11126;DHT22;5617;54.046;10.676;2022-09-23T02:06:22;8.90;99.90
11126;DHT22;5617;54.046;10.676;2022-09-23T02:08:34;8.90;99.90
11126;DHT22;5617;54.046;10.676;2022-09-23T02:10:49;8.90;99.90
11126;DHT22;5617;54.046;10.676;2022-09-23T02:13:03;8.90;99.90
11126;DHT22;5617;54.046;10.676;2022-09-23T02:15:14;8.80;99.90
11126;DHT22;5617;54.046;10.676;2022-09-23T02:17:26;8.80;99.90
11126;DHT22;5617;54.046;10.676;2022-09-23T02:19:41;8.80;99.90
11126;DHT22;5617;54.046;10.676;2022-09-23T02:21:56;8.80;99.90
11126;DHT22;5617;54.046;10.676;2022-09-23T02:24:09;8.80;99.90
11126;DHT22;5617;54.046;10.676;2022-09-23T02:26:22;8.80;99.90
11126;DHT22;5617;54.046;10.676;2022-09-23T02:28:37;8.80;99.90
11126;DHT22;5617;54.046;10.676;2022-09-23T02:30:50;8.80;99.90
11126;DHT22;5617;54.046;10.676;2022-09-23T02:33:05;8.80;99.90
11126;DHT22;5617;54.046;10.676;2022-09-23T02:35:19;8.80;99.90
11126;DHT22;5617;54.046;10.676;2022-09-23T02:37:38;8.80;99.90
11126;DHT22;5617;54.046;10.676;2022-09-23T02:39:56;8.80;99.90
11126;DHT22;5617;54.046;10.676;2022-09-23T02:42:08;8.80;99.90
11126;DHT22;5617;54.046;10.676;2022-09-23T02:44:19;8.80;99.90
11126;DHT22;5617;54.046;10.676;2022-09-23T02:46:29;8.80;99.90
11126;DHT22;5617;54.046;10.676;2022-09-23T02:48:40;8.80;99.90
11126;DHT22;5617;54.046;10.676;2022-09-23T02:50:52;8.80;99.90
11126;DHT22;5617;54.046;10.676;2022-09-23T02:53:00;8.90;99.90
11126;DHT22;5617;54.046;10.676;2022-09-23T02:55:10;8.90;99.90
11126;DHT22;5617;54.046;10.676;2022-09-23T02:57:20;8.90;99.90
11126;DHT22;5617;54.046;10.676;2022-09-23T02:59:29;8.90;99.90
11126;DHT22;5617;54.046;10.676;2022-09-23T03:01:46;8.90;99.90
11126;DHT22;5617;54.046;10.676;2022-09-23T03:04:09;8.90;99.90
11126;DHT22;5617;54.046;10.676;2022-09-23T03:06:27;8.90;99.90
11126;DHT22;5617;54.046;10.676;2022-09-23T03:08:44;8.90;99.90
11126;DHT22;5617;54.046;10.676;2022-09-23T03:11:04;8.90;99.90
11126;DHT22;5617;54.046;10.676;2022-09-23T03:13:22;8.90;99.90
11126;DHT22;5617;54.046;10.676;2022-09-23T03:15:37;8.90;99.90
11126;DHT22;5617;54.046;10.676;2022-09-23T03:17:53;8.90;99.90
11126;DHT22;5617;54.046;10.676;2022-09-23T03:20:06;8.90;99.90
11126;DHT22;5617;54.046;10.676;2022-09-23T03:22:19;8.90;99.90
11126;DHT22;5617;54.046;10.676;2022-09-23T03:24:30;8.90;99.90
11126;DHT22;5617;54.046;10.676;2022-09-23T03:26:44;8.90;99.90
11126;DHT22;5617;54.046;10.676;2022-09-23T03:28:53;8.90;99.90
11126;DHT22;5617;54.046;10.676;2022-09-23T03:31:02;8.90;99.90
11126;DHT22;5617;54.046;10.676;2022-09-23T03:33:13;8.90;99.90
11126;DHT22;5617;54.046;10.676;2022-09-23T03:35:26;8.90;99.90
11126;DHT22;5617;54.046;10.676;2022-09-23T03:37:40;8.90;99.90
11126;DHT22;5617;54.046;10.676;2022-09-23T03:39:53;8.90;99.90
11126;DHT22;5617;54.046;10.676;2022-09-23T03:42:06;8.90;99.90
11126;DHT22;5617;54.046;10.676;2022-09-23T03:44:23;8.80;99.90
11126;DHT22;5617;54.046;10.676;2022-09-23T03:46:30;8.90;99.90
11126;DHT22;5617;54.046;10.676;2022-09-23T03:48:40;8.80;99.90
11126;DHT22;5617;54.046;10.676;2022-09-23T03:50:49;8.80;99.90
11126;DHT22;5617;54.046;10.676;2022-09-23T03:52:58;8.80;99.90
11126;DHT22;5617;54.046;10.676;2022-09-23T03:55:07;8.80;99.90
11126;DHT22;5617;54.046;10.676;2022-09-23T03:57:15;8.80;99.90
11126;DHT22;5617;54.046;10.676;2022-09-23T03:59:23;8.70;99.90
11126;DHT22;5617;54.046;10.676;2022-09-23T04:01:30;8.70;99.90
11126;DHT22;5617;54.046;10.676;2022-09-23T04:03:38;8.70;99.90
11126;DHT22;5617;54.046;10.676;2022-09-23T04:05:46;8.70;99.90
11126;DHT22;5617;54.046;10.676;2022-09-23T04:07:54;8.70;99.90
11126;DHT22;5617;54.046;10.676;2022-09-23T04:10:04;8.70;99.90
11126;DHT22;5617;54.046;10.676;2022-09-23T04:12:14;8.70;99.90
11126;DHT22;5617;54.046;10.676;2022-09-23T04:14:22;8.60;99.90
11126;DHT22;5617;54.046;10.676;2022-09-23T04:16:30;8.70;99.90
11126;DHT22;5617;54.046;10.676;2022-09-23T04:18:38;8.60;99.90
11126;DHT22;5617;54.046;10.676;2022-09-23T04:20:46;8.60;99.90
11126;DHT22;5617;54.046;10.676;2022-09-23T04:22:55;8.60;99.90
11126;DHT22;5617;54.046;10.676;2022-09-23T04:25:05;8.60;99.90
11126;DHT22;5617;54.046;10.676;2022-09-23T04:27:14;8.60;99.90
11126;DHT22;5617;54.046;10.676;2022-09-23T04:29:23;8.60;99.90
11126;DHT22;5617;54.046;10.676;2022-09-23T04:31:31;8.60;99.90
11126;DHT22;5617;54.046;10.676;2022-09-23T04:33:39;8.60;99.90
11126;DHT22;5617;54.046;10.676;2022-09-23T04:35:49;8.60;99.90
11126;DHT22;5617;54.046;10.676;2022-09-23T04:37:57;8.50;99.90
11126;DHT22;5617;54.046;10.676;2022-09-23T04:40:08;8.50;99.90
11126;DHT22;5617;54.046;10.676;2022-09-23T04:42:15;8.50;99.90
11126;DHT22;5617;54.046;10.676;2022-09-23T04:44:23;8.50;99.90
11126;DHT22;5617;54.046;10.676;2022-09-23T04:46:32;8.50;99.90
11126;DHT22;5617;54.046;10.676;2022-09-23T04:48:41;8.50;99.90
11126;DHT22;5617;54.046;10.676;2022-09-23T04:50:48;8.50;99.90
11126;DHT22;5617;54.046;10.676;2022-09-23T04:52:56;8.50;99.90
11126;DHT22;5617;54.046;10.676;2022-09-23T04:55:06;8.50;99.90
11126;DHT22;5617;54.046;10.676;2022-09-23T04:57:14;8.50;99.90
11126;DHT22;5617;54.046;10.676;2022-09-23T04:59:22;8.50;99.90
11126;DHT22;5617;54.046;10.676;2022-09-23T05:01:32;8.50;99.90
11126;DHT22;5617;54.046;10.676;2022-09-23T05:03:40;8.50;99.90
11126;DHT22;5617;54.046;10.676;2022-09-23T05:05:48;8.60;99.90
11126;DHT22;5617;54.046;10.676;2022-09-23T05:07:56;8.60;99.90
11126;DHT22;5617;54.046;10.676;2022-09-23T05:10:06;8.60;99.90
11126;DHT22;5617;54.046;10.676;2022-09-23T05:12:14;8.60;99.90
11126;DHT22;5617;54.046;10.676;2022-09-23T05:14:22;8.70;99.90
11126;DHT22;5617;54.046;10.676;2022-09-23T05:16:29;8.70;99.90
11126;DHT22;5617;54.046;10.676;2022-09-23T05:18:38;8.70;99.90
11126;DHT22;5617;54.046;10.676;2022-09-23T05:20:52;8.70;99.90
11126;DHT22;5617;54.046;10.676;2022-09-23T05:23:00;8.70;99.90
11126;DHT22;5617;54.046;10.676;2022-09-23T05:25:09;8.80;99.90
11126;DHT22;5617;54.046;10.676;2022-09-23T05:27:17;8.80;99.90
11126;DHT22;5617;54.046;10.676;2022-09-23T05:29:25;8.90;99.90
11126;DHT22;5617;54.046;10.676;2022-09-23T05:31:33;8.90;99.90
11126;DHT22;5617;54.046;10.676;2022-09-23T05:33:43;8.90;99.90
11126;DHT22;5617;54.046;10.676;2022-09-23T05:35:52;8.90;99.90
11126;DHT22;5617;54.046;10.676;2022-09-23T05:37:59;8.90;99.90
11126;DHT22;5617;54.046;10.676;2022-09-23T05:40:09;9.00;99.90
11126;DHT22;5617;54.046;10.676;2022-09-23T05:42:16;9.00;99.90
11126;DHT22;5617;54.046;10.676;2022-09-23T05:44:25;9.00;99.90
11126;DHT22;5617;54.046;10.676;2022-09-23T05:46:34;9.10;99.90
11126;DHT22;5617;54.046;10.676;2022-09-23T05:48:42;9.10;99.90
11126;DHT22;5617;54.046;10.676;2022-09-23T05:50:51;9.10;99.90
11126;DHT22;5617;54.046;10.676;2022-09-23T05:52:59;9.10;99.90
11126;DHT22;5617;54.046;10.676;2022-09-23T05:55:08;9.20;99.90
11126;DHT22;5617;54.046;10.676;2022-09-23T05:57:17;9.20;99.90
11126;DHT22;5617;54.046;10.676;2022-09-23T05:59:25;9.20;99.90
11126;DHT22;5617;54.046;10.676;2022-09-23T06:01:34;9.20;99.90
11126;DHT22;5617;54.046;10.676;2022-09-23T06:03:45;9.30;99.90
11126;DHT22;5617;54.046;10.676;2022-09-23T06:05:53;9.30;99.90
11126;DHT22;5617;54.046;10.676;2022-09-23T06:08:02;9.40;99.90
11126;DHT22;5617;54.046;10.676;2022-09-23T06:10:11;9.40;99.90
11126;DHT22;5617;54.046;10.676;2022-09-23T06:12:19;9.40;99.90
11126;DHT22;5617;54.046;10.676;2022-09-23T06:14:27;9.40;99.90
11126;DHT22;5617;54.046;10.676;2022-09-23T06:16:34;9.50;99.90
11126;DHT22;5617;54.046;10.676;2022-09-23T06:18:43;9.50;99.90
11126;DHT22;5617;54.046;10.676;2022-09-23T06:20:53;9.60;99.90
11126;DHT22;5617;54.046;10.676;2022-09-23T06:23:04;9.60;99.90
11126;DHT22;5617;54.046;10.676;2022-09-23T06:25:14;9.60;99.90
11126;DHT22;5617;54.046;10.676;2022-09-23T06:27:21;9.70;99.90
11126;DHT22;5617;54.046;10.676;2022-09-23T06:29:29;9.70;99.90
11126;DHT22;5617;54.046;10.676;2022-09-23T06:31:37;9.80;99.90
11126;DHT22;5617;54.046;10.676;2022-09-23T06:33:48;9.80;99.90
11126;DHT22;5617;54.046;10.676;2022-09-23T06:35:57;9.90;99.90
11126;DHT22;5617;54.046;10.676;2022-09-23T06:38:05;9.90;99.90
11126;DHT22;5617;54.046;10.676;2022-09-23T06:40:15;10.00;99.90
11126;DHT22;5617;54.046;10.676;2022-09-23T06:42:23;10.10;99.90
11126;DHT22;5617;54.046;10.676;2022-09-23T06:44:30;10.20;99.90
11126;DHT22;5617;54.046;10.676;2022-09-23T06:46:39;10.30;99.90
11126;DHT22;5617;54.046;10.676;2022-09-23T06:48:47;10.30;99.90
11126;DHT22;5617;54.046;10.676;2022-09-23T06:50:59;10.50;99.90
11126;DHT22;5617;54.046;10.676;2022-09-23T06:53:07;10.70;99.90
11126;DHT22;5617;54.046;10.676;2022-09-23T06:55:16;10.80;99.90
11126;DHT22;5617;54.046;10.676;2022-09-23T06:57:27;10.80;99.90
11126;DHT22;5617;54.046;10.676;2022-09-23T06:59:35;10.90;99.90
11126;DHT22;5617;54.046;10.676;2022-09-23T07:01:42;10.90;99.90
11126;DHT22;5617;54.046;10.676;2022-09-23T07:03:52;10.90;99.90
11126;DHT22;5617;54.046;10.676;2022-09-23T07:06:01;11.00;99.90
11126;DHT22;5617;54.046;10.676;2022-09-23T07:08:09;11.00;99.90
11126;DHT22;5617;54.046;10.676;2022-09-23T07:10:20;11.00;99.90
11126;DHT22;5617;54.046;10.676;2022-09-23T07:12:28;11.10;99.90
11126;DHT22;5617;54.046;10.676;2022-09-23T07:14:37;11.20;99.90
11126;DHT22;5617;54.046;10.676;2022-09-23T07:16:47;11.10;99.90
11126;DHT22;5617;54.046;10.676;2022-09-23T07:18:56;11.20;99.90
11126;DHT22;5617;54.046;10.676;2022-09-23T07:21:05;11.30;99.90
11126;DHT22;5617;54.046;10.676;2022-09-23T07:23:13;11.40;99.90
11126;DHT22;5617;54.046;10.676;2022-09-23T07:25:25;11.50;99.90
11126;DHT22;5617;54.046;10.676;2022-09-23T07:27:32;11.60;99.90
11126;DHT22;5617;54.046;10.676;2022-09-23T07:29:40;11.70;99.90
11126;DHT22;5617;54.046;10.676;2022-09-23T07:31:48;11.80;99.90
11126;DHT22;5617;54.046;10.676;2022-09-23T07:33:57;11.90;99.90
11126;DHT22;5617;54.046;10.676;2022-09-23T07:36:08;11.90;99.90
11126;DHT22;5617;54.046;10.676;2022-09-23T07:38:15;12.10;99.90
11126;DHT22;5617;54.046;10.676;2022-09-23T07:40:24;12.10;99.90
11126;DHT22;5617;54.046;10.676;2022-09-23T07:42:32;12.20;99.90
11126;DHT22;5617;54.046;10.676;2022-09-23T07:44:40;12.30;99.90
11126;DHT22;5617;54.046;10.676;2022-09-23T07:46:49;12.40;99.90
11126;DHT22;5617;54.046;10.676;2022-09-23T07:49:00;12.30;99.90
11126;DHT22;5617;54.046;10.676;2022-09-23T07:51:10;12.40;99.90
11126;DHT22;5617;54.046;10.676;2022-09-23T07:53:18;12.40;99.90
11126;DHT22;5617;54.046;10.676;2022-09-23T07:55:27;12.50;99.90
11126;DHT22;5617;54.046;10.676;2022-09-23T07:57:35;12.60;99.90
11126;DHT22;5617;54.046;10.676;2022-09-23T07:59:43;12.70;99.90
11126;DHT22;5617;54.046;10.676;2022-09-23T08:01:51;12.90;99.90
11126;DHT22;5617;54.046;10.676;2022-09-23T08:04:01;13.10;99.90
11126;DHT22;5617;54.046;10.676;2022-09-23T08:06:11;13.20;99.90
11126;DHT22;5617;54.046;10.676;2022-09-23T08:08:19;13.40;99.90
11126;DHT22;5617;54.046;10.676;2022-09-23T08:10:28;13.50;99.90
11126;DHT22;5617;54.046;10.676;2022-09-23T08:12:35;13.60;99.90
11126;DHT22;5617;54.046;10.676;2022-09-23T08:14:45;13.80;99.90
11126;DHT22;5617;54.046;10.676;2022-09-23T08:16:52;13.80;99.70
11126;DHT22;5617;54.046;10.676;2022-09-23T08:19:00;13.80;99.60
11126;DHT22;5617;54.046;10.676;2022-09-23T08:21:08;13.90;99.50
11126;DHT22;5617;54.046;10.676;2022-09-23T08:23:16;13.90;99.30
11126;DHT22;5617;54.046;10.676;2022-09-23T08:25:25;14.10;99.30
11126;DHT22;5617;54.046;10.676;2022-09-23T08:27:34;14.20;99.20
11126;DHT22;5617;54.046;10.676;2022-09-23T08:29:42;14.20;99.10
11126;DHT22;5617;54.046;10.676;2022-09-23T08:31:52;14.20;98.90
11126;DHT22;5617;54.046;10.676;2022-09-23T08:34:00;14.30;98.80
11126;DHT22;5617;54.046;10.676;2022-09-23T08:36:07;14.30;98.60
11126;DHT22;5617;54.046;10.676;2022-09-23T08:38:15;14.40;98.40
11126;DHT22;5617;54.046;10.676;2022-09-23T08:40:23;14.50;98.30
11126;DHT22;5617;54.046;10.676;2022-09-23T08:42:32;14.60;98.00
11126;DHT22;5617;54.046;10.676;2022-09-23T08:44:49;14.80;97.70
11126;DHT22;5617;54.046;10.676;2022-09-23T08:47:06;14.90;97.50
11126;DHT22;5617;54.046;10.676;2022-09-23T08:49:22;15.00;97.20
11126;DHT22;5617;54.046;10.676;2022-09-23T08:51:35;15.20;97.00
11126;DHT22;5617;54.046;10.676;2022-09-23T08:53:46;15.20;96.90
11126;DHT22;5617;54.046;10.676;2022-09-23T08:55:55;15.40;96.90
11126;DHT22;5617;54.046;10.676;2022-09-23T08:58:23;15.60;96.70
11126;DHT22;5617;54.046;10.676;2022-09-23T09:00:40;15.70;96.50
11126;DHT22;5617;54.046;10.676;2022-09-23T09:02:48;15.80;96.30
11126;DHT22;5617;54.046;10.676;2022-09-23T09:04:58;15.90;96.20
11126;DHT22;5617;54.046;10.676;2022-09-23T09:07:13;15.90;95.70
11126;DHT22;5617;54.046;10.676;2022-09-23T09:09:24;15.90;95.40
11126;DHT22;5617;54.046;10.676;2022-09-23T09:11:35;16.00;95.40
11126;DHT22;5617;54.046;10.676;2022-09-23T09:13:47;16.00;95.10
11126;DHT22;5617;54.046;10.676;2022-09-23T09:16:29;16.00;95.10
11126;DHT22;5617;54.046;10.676;2022-09-23T09:18:49;16.00;94.90
11126;DHT22;5617;54.046;10.676;2022-09-23T09:20:59;16.00;94.70
11126;DHT22;5617;54.046;10.676;2022-09-23T09:23:20;16.10;94.50
11126;DHT22;5617;54.046;10.676;2022-09-23T09:25:38;16.20;94.40
11126;DHT22;5617;54.046;10.676;2022-09-23T09:27:49;16.30;94.10
11126;DHT22;5617;54.046;10.676;2022-09-23T09:29:59;16.30;94.00
11126;DHT22;5617;54.046;10.676;2022-09-23T09:32:18;16.20;94.00
11126;DHT22;5617;54.046;10.676;2022-09-23T09:34:32;16.20;94.30
11126;DHT22;5617;54.046;10.676;2022-09-23T09:36:45;16.40;94.20
11126;DHT22;5617;54.046;10.676;2022-09-23T09:38:55;16.50;94.10
11126;DHT22;5617;54.046;10.676;2022-09-23T09:41:12;16.60;93.80
11126;DHT22;5617;54.046;10.676;2022-09-23T09:43:21;16.60;93.50
11126;DHT22;5617;54.046;10.676;2022-09-23T09:45:45;16.80;93.50
11126;DHT22;5617;54.046;10.676;2022-09-23T09:48:07;17.00;93.40
11126;DHT22;5617;54.046;10.676;2022-09-23T09:50:18;17.10;93.40
11126;DHT22;5617;54.046;10.676;2022-09-23T09:52:47;17.20;93.40
11126;DHT22;5617;54.046;10.676;2022-09-23T09:55:15;17.40;93.10
11126;DHT22;5617;54.046;10.676;2022-09-23T09:57:28;17.50;92.80
11126;DHT22;5617;54.046;10.676;2022-09-23T09:59:37;17.70;92.60
11126;DHT22;5617;54.046;10.676;2022-09-23T10:01:49;18.00;92.50
11126;DHT22;5617;54.046;10.676;2022-09-23T10:04:21;18.10;92.30
11126;DHT22;5617;54.046;10.676;2022-09-23T10:06:32;18.30;92.20
11126;DHT22;5617;54.046;10.676;2022-09-23T10:08:47;18.20;91.90
11126;DHT22;5617;54.046;10.676;2022-09-23T10:11:00;18.20;91.50
11126;DHT22;5617;54.046;10.676;2022-09-23T10:13:13;18.00;91.20
11126;DHT22;5617;54.046;10.676;2022-09-23T10:15:27;17.90;91.20
11126;DHT22;5617;54.046;10.676;2022-09-23T10:17:38;18.00;91.40
11126;DHT22;5617;54.046;10.676;2022-09-23T10:19:48;18.00;91.30
11126;DHT22;5617;54.046;10.676;2022-09-23T10:21:59;18.00;91.10
11126;DHT22;5617;54.046;10.676;2022-09-23T10:24:21;18.10;91.00
11126;DHT22;5617;54.046;10.676;2022-09-23T10:26:31;18.20;91.20
11126;DHT22;5617;54.046;10.676;2022-09-23T10:28:43;18.40;91.00
11126;DHT22;5617;54.046;10.676;2022-09-23T10:31:04;18.50;90.80
11126;DHT22;5617;54.046;10.676;2022-09-23T10:33:25;18.50;90.50
11126;DHT22;5617;54.046;10.676;2022-09-23T10:35:33;18.70;90.50
11126;DHT22;5617;54.046;10.676;2022-09-23T10:37:43;18.90;90.40
11126;DHT22;5617;54.046;10.676;2022-09-23T10:39:52;19.00;90.10
11126;DHT22;5617;54.046;10.676;2022-09-23T10:42:24;19.10;90.10
11126;DHT22;5617;54.046;10.676;2022-09-23T10:45:00;19.30;89.90
11126;DHT22;5617;54.046;10.676;2022-09-23T10:47:33;19.30;88.30
11126;DHT22;5617;54.046;10.676;2022-09-23T10:49:56;19.40;88.20
11126;DHT22;5617;54.046;10.676;2022-09-23T10:52:15;19.50;88.50
11126;DHT22;5617;54.046;10.676;2022-09-23T10:54:35;19.60;87.70
11126;DHT22;5617;54.046;10.676;2022-09-23T10:56:49;19.60;87.50
11126;DHT22;5617;54.046;10.676;2022-09-23T11:01:42;19.80;87.30
11126;DHT22;5617;54.046;10.676;2022-09-23T11:04:29;20.00;87.10
11126;DHT22;5617;54.046;10.676;2022-09-23T11:06:50;20.10;85.60
11126;DHT22;5617;54.046;10.676;2022-09-23T11:09:19;20.00;85.00
11126;DHT22;5617;54.046;10.676;2022-09-23T11:11:40;20.10;84.70
11126;DHT22;5617;54.046;10.676;2022-09-23T11:14:05;20.00;85.50
11126;DHT22;5617;54.046;10.676;2022-09-23T11:16:27;20.20;85.30
11126;DHT22;5617;54.046;10.676;2022-09-23T11:19:13;20.30;85.60
11126;DHT22;5617;54.046;10.676;2022-09-23T11:21:48;20.40;85.60
11126;DHT22;5617;54.046;10.676;2022-09-23T11:24:15;20.50;85.00
11126;DHT22;5617;54.046;10.676;2022-09-23T11:26:35;20.50;84.90
11126;DHT22;5617;54.046;10.676;2022-09-23T11:29:00;20.60;84.90
11126;DHT22;5617;54.046;10.676;2022-09-23T11:31:19;20.50;84.40
11126;DHT22;5617;54.046;10.676;2022-09-23T11:33:39;20.50;84.00
11126;DHT22;5617;54.046;10.676;2022-09-23T11:35:52;20.40;84.80
11126;DHT22;5617;54.046;10.676;2022-09-23T11:38:06;20.30;84.30
11126;DHT22;5617;54.046;10.676;2022-09-23T11:40:19;20.20;84.10
11126;DHT22;5617;54.046;10.676;2022-09-23T11:42:32;20.00;83.80
11126;DHT22;5617;54.046;10.676;2022-09-23T11:44:53;19.80;83.70
11126;DHT22;5617;54.046;10.676;2022-09-23T11:47:09;19.60;83.80
11126;DHT22;5617;54.046;10.676;2022-09-23T11:49:21;19.60;84.10
11126;DHT22;5617;54.046;10.676;2022-09-23T11:51:39;19.50;84.40
11126;DHT22;5617;54.046;10.676;2022-09-23T11:53:52;19.50;84.70
11126;DHT22;5617;54.046;10.676;2022-09-23T11:56:04;19.50;84.80
11126;DHT22;5617;54.046;10.676;2022-09-23T11:58:17;19.40;84.80
11126;DHT22;5617;54.046;10.676;2022-09-23T12:00:31;19.40;85.00
11126;DHT22;5617;54.046;10.676;2022-09-23T12:02:50;19.40;84.90
11126;DHT22;5617;54.046;10.676;2022-09-23T12:05:04;19.40;84.70
11126;DHT22;5617;54.046;10.676;2022-09-23T12:07:17;19.40;85.00
11126;DHT22;5617;54.046;10.676;2022-09-23T12:09:31;19.40;85.10
11126;DHT22;5617;54.046;10.676;2022-09-23T12:11:45;19.30;85.20
11126;DHT22;5617;54.046;10.676;2022-09-23T12:14:06;19.40;85.20
11126;DHT22;5617;54.046;10.676;2022-09-23T12:16:45;19.50;85.40
11126;DHT22;5617;54.046;10.676;2022-09-23T12:19:03;19.60;85.50
11126;DHT22;5617;54.046;10.676;2022-09-23T12:21:41;19.60;84.10
11126;DHT22;5617;54.046;10.676;2022-09-23T12:24:03;19.80;84.80
11126;DHT22;5617;54.046;10.676;2022-09-23T12:26:18;19.90;84.50
11126;DHT22;5617;54.046;10.676;2022-09-23T12:28:28;19.80;84.20
11126;DHT22;5617;54.046;10.676;2022-09-23T12:30:41;20.00;84.90
11126;DHT22;5617;54.046;10.676;2022-09-23T12:32:51;20.10;84.20
11126;DHT22;5617;54.046;10.676;2022-09-23T12:35:00;20.20;83.50
11126;DHT22;5617;54.046;10.676;2022-09-23T12:37:09;20.30;83.20
11126;DHT22;5617;54.046;10.676;2022-09-23T12:39:25;20.40;83.20
11126;DHT22;5617;54.046;10.676;2022-09-23T12:41:35;20.50;82.80
11126;DHT22;5617;54.046;10.676;2022-09-23T12:43:49;20.60;82.50
11126;DHT22;5617;54.046;10.676;2022-09-23T12:46:16;20.60;82.30
11126;DHT22;5617;54.046;10.676;2022-09-23T12:48:43;20.60;82.30
11126;DHT22;5617;54.046;10.676;2022-09-23T12:50:55;20.60;82.20
11126;DHT22;5617;54.046;10.676;2022-09-23T12:56:02;20.60;82.50
11126;DHT22;5617;54.046;10.676;2022-09-23T12:58:56;20.60;82.80
11126;DHT22;5617;54.046;10.676;2022-09-23T13:01:06;20.60;82.60
11126;DHT22;5617;54.046;10.676;2022-09-23T13:03:15;20.50;82.30
11126;DHT22;5617;54.046;10.676;2022-09-23T13:05:45;20.50;82.20
11126;DHT22;5617;54.046;10.676;2022-09-23T13:08:13;20.40;82.70
11126;DHT22;5617;54.046;10.676;2022-09-23T13:10:27;20.40;82.60
11126;DHT22;5617;54.046;10.676;2022-09-23T13:12:38;20.30;82.00
11126;DHT22;5617;54.046;10.676;2022-09-23T13:14:49;20.20;82.10
11126;DHT22;5617;54.046;10.676;2022-09-23T13:16:59;20.10;81.90
11126;DHT22;5617;54.046;10.676;2022-09-23T13:19:42;19.90;81.70
11126;DHT22;5617;54.046;10.676;2022-09-23T13:22:13;19.80;81.80
11126;DHT22;5617;54.046;10.676;2022-09-23T13:24:35;19.70;81.70
11126;DHT22;5617;54.046;10.676;2022-09-23T13:26:46;19.60;81.30
11126;DHT22;5617;54.046;10.676;2022-09-23T13:28:56;19.40;81.80
11126;DHT22;5617;54.046;10.676;2022-09-23T13:31:12;19.40;82.00
11126;DHT22;5617;54.046;10.676;2022-09-23T13:33:27;19.40;82.10
11126;DHT22;5617;54.046;10.676;2022-09-23T13:35:38;19.20;82.20
11126;DHT22;5617;54.046;10.676;2022-09-23T13:37:48;19.30;81.80
11126;DHT22;5617;54.046;10.676;2022-09-23T13:40:14;19.20;81.00
11126;DHT22;5617;54.046;10.676;2022-09-23T13:42:25;19.10;80.60
11126;DHT22;5617;54.046;10.676;2022-09-23T13:44:33;19.00;80.50
11126;DHT22;5617;54.046;10.676;2022-09-23T13:46:45;19.00;80.90
11126;DHT22;5617;54.046;10.676;2022-09-23T13:48:55;19.00;81.60
11126;DHT22;5617;54.046;10.676;2022-09-23T13:51:07;19.00;81.80
11126;DHT22;5617;54.046;10.676;2022-09-23T13:53:21;19.00;81.60
11126;DHT22;5617;54.046;10.676;2022-09-23T13:55:31;19.00;81.40
11126;DHT22;5617;54.046;10.676;2022-09-23T13:57:43;19.00;81.40
11126;DHT22;5617;54.046;10.676;2022-09-23T13:59:51;19.00;81.50
11126;DHT22;5617;54.046;10.676;2022-09-23T14:02:02;19.00;81.20
11126;DHT22;5617;54.046;10.676;2022-09-23T14:04:22;19.00;81.20
11126;DHT22;5617;54.046;10.676;2022-09-23T14:06:30;19.00;82.10
11126;DHT22;5617;54.046;10.676;2022-09-23T14:08:41;19.00;81.50
11126;DHT22;5617;54.046;10.676;2022-09-23T14:10:50;19.00;81.70
11126;DHT22;5617;54.046;10.676;2022-09-23T14:13:00;19.00;81.90